Time;durP1;ratioP1;P1;durP2;ratioP2;P2;SDS_P1;SDS_P2;PMS_P1;PMS_P2;Temp;Humidity;BMP_temperature;BMP_pressure;BME280_temperature;BME280_humidity;BME280_pressure;Samples;Min_cycle;Max_cycle;Signal;HPM_P1;HPM_P2
2021/07/31 00:01:19;;;;;;;7.73;7.03;;;18.10;99.90;;;;;;5088768;28;20457;-76
2021/07/31 00:03:45;;;;;;;7.70;6.87;;;18.10;99.90;;;;;;5088510;28;20482;-76
2021/07/31 00:06:12;;;;;;;7.70;6.90;;;18.00;99.90;;;;;;5089122;28;20484;-76
2021/07/31 00:08:39;;;;;;;7.73;6.30;;;18.00;99.90;;;;;;5088738;28;20461;-76
2021/07/31 00:11:05;;;;;;;7.37;6.67;;;18.00;99.90;;;;;;5088819;28;20464;-76
2021/07/31 00:13:33;;;;;;;8.60;7.43;;;18.00;99.90;;;;;;5092644;28;20453;-76
2021/07/31 00:16:00;;;;;;;9.03;6.73;;;17.90;99.90;;;;;;5092385;28;20477;-77
2021/07/31 00:18:27;;;;;;;6.77;6.17;;;17.90;99.90;;;;;;5092654;28;21015;-77
2021/07/31 00:20:53;;;;;;;7.03;6.33;;;17.80;99.90;;;;;;5091772;28;20457;-76
2021/07/31 00:23:20;;;;;;;6.60;6.00;;;17.80;99.90;;;;;;5092646;28;20560;-77
2021/07/31 00:25:47;;;;;;;8.27;6.70;;;17.80;99.90;;;;;;5092325;28;20833;-76
2021/07/31 00:28:13;;;;;;;6.63;6.03;;;17.80;99.90;;;;;;5092915;28;20472;-76
2021/07/31 00:30:41;;;;;;;8.43;6.73;;;17.80;99.90;;;;;;5091898;28;20458;-76
2021/07/31 00:33:08;;;;;;;6.80;6.10;;;17.70;99.90;;;;;;5092323;28;20453;-76
2021/07/31 00:35:35;;;;;;;8.23;6.40;;;17.70;99.90;;;;;;5092278;28;20493;-76
2021/07/31 00:38:02;;;;;;;7.97;7.17;;;17.70;99.90;;;;;;5092035;28;20953;-76
2021/07/31 00:40:28;;;;;;;7.53;6.83;;;17.70;99.90;;;;;;5091643;28;20814;-77
2021/07/31 00:42:55;;;;;;;7.10;6.13;;;17.70;99.90;;;;;;5091659;28;20485;-77
2021/07/31 00:45:22;;;;;;;9.73;6.80;;;17.70;99.90;;;;;;5092232;28;20857;-77
2021/07/31 00:47:50;;;;;;;8.00;7.20;;;17.70;99.90;;;;;;5091782;28;20458;-77
2021/07/31 00:50:17;;;;;;;8.30;6.80;;;17.80;99.90;;;;;;5091696;28;20457;-76
2021/07/31 00:52:46;;;;;;;9.90;6.43;;;17.80;99.90;;;;;;5091566;28;20458;-76
2021/07/31 00:55:14;;;;;;;6.40;5.10;;;17.80;99.90;;;;;;5091963;28;20482;-76
2021/07/31 00:57:42;;;;;;;5.77;5.27;;;17.80;99.90;;;;;;5091718;28;20960;-76
2021/07/31 01:00:09;;;;;;;6.13;5.53;;;17.80;99.90;;;;;;5091488;28;20472;-77
2021/07/31 01:02:36;;;;;;;6.83;6.20;;;17.80;99.90;;;;;;5091935;28;20486;-77
2021/07/31 01:05:05;;;;;;;5.70;5.20;;;17.80;99.90;;;;;;5091504;28;20493;-77
2021/07/31 01:07:32;;;;;;;7.10;5.73;;;17.90;99.90;;;;;;5091635;28;20465;-77
2021/07/31 01:09:59;;;;;;;5.83;5.23;;;17.90;99.90;;;;;;5090909;28;20465;-77
2021/07/31 01:12:26;;;;;;;6.00;5.40;;;17.90;99.90;;;;;;5091577;28;20953;-76
2021/07/31 01:14:53;;;;;;;6.33;5.73;;;17.90;99.90;;;;;;5091225;28;20489;-76
2021/07/31 01:17:19;;;;;;;5.67;5.10;;;17.90;99.90;;;;;;5091553;28;20468;-76
2021/07/31 01:19:46;;;;;;;6.10;5.50;;;17.90;99.90;;;;;;5090610;28;20814;-77
2021/07/31 01:22:14;;;;;;;7.10;5.20;;;17.90;99.90;;;;;;5091212;28;20462;-77
2021/07/31 01:24:41;;;;;;;6.60;6.00;;;17.90;99.90;;;;;;5090290;28;20481;-77
2021/07/31 01:27:07;;;;;;;6.70;5.50;;;17.90;99.90;;;;;;5091263;28;20461;-77
2021/07/31 01:29:34;;;;;;;6.10;5.23;;;17.90;99.90;;;;;;5090810;28;20842;-77
2021/07/31 01:32:01;;;;;;;5.80;5.00;;;17.80;99.90;;;;;;5090560;28;20466;-77
2021/07/31 01:34:28;;;;;;;5.80;4.60;;;17.80;99.90;;;;;;5091079;28;20450;-77
2021/07/31 01:36:54;;;;;;;6.60;4.80;;;17.80;99.90;;;;;;5090752;28;20457;-77
2021/07/31 01:39:22;;;;;;;7.27;5.37;;;17.70;99.90;;;;;;5090518;28;20458;-76
2021/07/31 01:41:49;;;;;;;5.80;5.17;;;17.80;99.90;;;;;;5090727;28;20933;-77
2021/07/31 01:44:16;;;;;;;5.90;5.40;;;17.70;99.90;;;;;;5090611;28;20930;-76
2021/07/31 01:46:43;;;;;;;6.30;5.70;;;17.70;99.90;;;;;;5090634;28;20458;-77
2021/07/31 01:49:10;;;;;;;6.73;4.87;;;17.70;99.90;;;;;;5090455;28;20949;-77
2021/07/31 01:51:36;;;;;;;7.57;5.23;;;17.60;99.90;;;;;;5090773;28;20469;-76
2021/07/31 01:54:03;;;;;;;6.40;5.13;;;17.60;99.90;;;;;;5090598;28;20462;-76
2021/07/31 01:56:31;;;;;;;5.50;5.00;;;17.60;99.90;;;;;;5090889;28;20486;-77
2021/07/31 01:58:58;;;;;;;5.53;4.70;;;17.50;99.90;;;;;;5090387;28;20466;-77
2021/07/31 02:01:25;;;;;;;5.40;4.77;;;17.50;99.90;;;;;;5090008;28;20458;-77
2021/07/31 02:03:52;;;;;;;7.40;4.97;;;17.50;99.90;;;;;;5090184;28;20517;-76
2021/07/31 02:06:18;;;;;;;5.77;5.10;;;17.50;99.90;;;;;;5090537;28;20478;-77
2021/07/31 02:08:45;;;;;;;5.53;4.43;;;17.40;99.90;;;;;;5090148;28;20841;-77
2021/07/31 02:11:13;;;;;;;5.80;4.33;;;17.40;99.90;;;;;;5090100;28;20458;-77
2021/07/31 02:13:41;;;;;;;5.27;4.77;;;17.30;99.90;;;;;;5091123;28;20493;-76
2021/07/31 02:16:08;;;;;;;5.20;4.70;;;17.30;99.90;;;;;;5090712;28;20864;-76
2021/07/31 02:18:35;;;;;;;6.33;4.83;;;17.30;99.90;;;;;;5090288;28;20465;-76
2021/07/31 02:21:01;;;;;;;5.90;4.50;;;17.20;99.90;;;;;;5089514;28;20982;-76
2021/07/31 02:23:28;;;;;;;5.10;4.40;;;17.20;99.90;;;;;;5090361;28;21004;-77
2021/07/31 02:25:55;;;;;;;6.20;4.60;;;17.10;99.90;;;;;;5089871;28;20488;-77
2021/07/31 02:28:21;;;;;;;5.03;4.30;;;17.00;99.90;;;;;;5090318;28;20457;-77
2021/07/31 02:30:49;;;;;;;4.90;4.40;;;17.00;99.90;;;;;;5089238;28;20465;-77
2021/07/31 02:33:16;;;;;;;5.33;4.10;;;16.90;99.90;;;;;;5090120;28;20461;-77
2021/07/31 02:35:43;;;;;;;5.50;4.57;;;16.80;99.90;;;;;;5089822;28;20496;-77
2021/07/31 02:38:09;;;;;;;4.93;4.40;;;16.80;99.90;;;;;;5089903;28;20458;-77
2021/07/31 02:40:36;;;;;;;9.07;4.90;;;16.70;99.90;;;;;;5089345;28;20464;-77
2021/07/31 02:43:03;;;;;;;6.10;4.70;;;16.60;99.90;;;;;;5089764;28;20943;-77
2021/07/31 02:45:30;;;;;;;5.93;4.33;;;16.60;99.90;;;;;;5089661;28;20606;-77
2021/07/31 02:47:59;;;;;;;7.00;4.47;;;16.60;99.90;;;;;;5089750;28;20464;-76
2021/07/31 02:50:27;;;;;;;4.53;4.13;;;16.50;99.90;;;;;;5089395;28;20825;-77
2021/07/31 02:52:54;;;;;;;8.63;4.37;;;16.50;99.90;;;;;;5089610;28;20483;-77
2021/07/31 02:55:21;;;;;;;5.50;4.10;;;16.40;99.90;;;;;;5089904;28;20473;-77
2021/07/31 02:57:48;;;;;;;5.23;3.70;;;16.40;99.90;;;;;;5089533;28;20469;-77
2021/07/31 03:00:15;;;;;;;5.23;3.93;;;16.30;99.90;;;;;;5089338;28;20465;-76
2021/07/31 03:02:41;;;;;;;4.30;3.90;;;16.20;99.90;;;;;;5089493;28;20978;-77
2021/07/31 03:05:10;;;;;;;4.30;3.90;;;16.20;99.90;;;;;;5089524;28;20508;-77
2021/07/31 03:07:37;;;;;;;6.30;3.93;;;16.10;99.90;;;;;;5089915;28;20450;-77
2021/07/31 03:10:04;;;;;;;4.40;3.80;;;16.10;99.90;;;;;;5088965;28;20458;-77
2021/07/31 03:12:32;;;;;;;4.60;3.60;;;16.00;99.90;;;;;;5089486;28;20464;-77
2021/07/31 03:14:59;;;;;;;4.03;3.63;;;15.90;99.90;;;;;;5089374;28;20513;-76
2021/07/31 03:17:26;;;;;;;4.60;3.70;;;15.90;99.90;;;;;;5089441;28;20956;-77
2021/07/31 03:19:52;;;;;;;4.23;3.70;;;15.90;99.90;;;;;;5088638;28;20479;-77
2021/07/31 03:22:20;;;;;;;5.30;3.80;;;15.80;99.90;;;;;;5089551;28;20457;-77
2021/07/31 03:24:47;;;;;;;6.83;3.73;;;15.70;99.90;;;;;;5089291;28;20489;-77
2021/07/31 03:27:14;;;;;;;3.90;3.50;;;15.70;99.90;;;;;;5089483;28;20976;-77
2021/07/31 03:29:41;;;;;;;4.63;2.83;;;15.70;99.90;;;;;;5088763;28;20457;-77
2021/07/31 03:32:08;;;;;;;4.10;3.10;;;15.70;99.90;;;;;;5089325;28;20468;-76
2021/07/31 03:34:35;;;;;;;4.33;3.10;;;15.60;99.90;;;;;;5089261;28;20473;-77
2021/07/31 03:37:02;;;;;;;3.50;3.00;;;15.60;99.90;;;;;;5089180;28;20463;-76
2021/07/31 03:39:30;;;;;;;5.10;3.20;;;15.60;99.90;;;;;;5089050;28;20462;-77
2021/07/31 03:41:57;;;;;;;4.87;3.17;;;15.60;99.90;;;;;;5089088;28;20458;-76
2021/07/31 03:44:24;;;;;;;3.40;3.10;;;15.50;99.90;;;;;;5089206;28;20489;-76
2021/07/31 03:46:51;;;;;;;8.63;3.60;;;15.50;99.90;;;;;;5090749;28;20465;-76
2021/07/31 03:49:18;;;;;;;3.83;2.67;;;15.50;99.90;;;;;;5092977;28;20464;-76
2021/07/31 03:51:44;;;;;;;5.10;3.00;;;15.40;99.90;;;;;;5092967;28;20473;-77
2021/07/31 03:54:11;;;;;;;3.30;3.00;;;15.40;99.90;;;;;;5093098;28;20464;-76
2021/07/31 03:56:39;;;;;;;3.13;2.67;;;15.30;99.90;;;;;;5093145;28;20477;-76
2021/07/31 03:59:06;;;;;;;3.73;3.40;;;15.30;99.90;;;;;;5092989;28;20461;-77
2021/07/31 04:01:32;;;;;;;4.00;3.10;;;15.20;99.90;;;;;;5092871;28;20457;-76
2021/07/31 04:03:59;;;;;;;3.50;2.77;;;15.20;99.90;;;;;;5092482;28;20488;-76
2021/07/31 04:06:26;;;;;;;3.13;2.87;;;15.10;99.90;;;;;;5092732;28;20481;-76
2021/07/31 04:08:52;;;;;;;6.57;2.73;;;15.10;99.90;;;;;;5092501;28;20457;-77
2021/07/31 04:11:19;;;;;;;2.97;2.50;;;15.00;99.90;;;;;;5092328;28;20969;-77
2021/07/31 04:13:47;;;;;;;5.93;3.27;;;15.00;99.90;;;;;;5092305;28;20493;-77
2021/07/31 04:16:14;;;;;;;4.40;3.40;;;14.90;99.90;;;;;;5092722;28;20494;-77
2021/07/31 04:18:41;;;;;;;3.20;2.70;;;14.90;99.90;;;;;;5092414;28;20465;-76
2021/07/31 04:21:08;;;;;;;2.83;2.30;;;14.90;99.90;;;;;;5092203;28;20453;-77
2021/07/31 04:23:36;;;;;;;2.70;2.47;;;14.80;99.90;;;;;;5092385;28;20853;-76
2021/07/31 04:26:13;;;;;;;3.77;2.63;;;14.80;99.90;;;;;;5092375;28;20833;-77
2021/07/31 04:28:40;;;;;;;3.60;2.57;;;14.80;99.90;;;;;;5092372;28;20543;-76
2021/07/31 04:31:10;;;;;;;3.40;3.00;;;14.80;99.90;;;;;;5091793;28;20944;-76
2021/07/31 04:33:36;;;;;;;2.90;2.20;;;14.80;99.90;;;;;;5091669;28;20454;-77
2021/07/31 04:36:03;;;;;;;4.10;3.17;;;14.80;99.90;;;;;;5092218;28;20485;-77
2021/07/31 04:38:31;;;;;;;2.40;2.20;;;14.70;99.90;;;;;;5092407;28;20465;-77
2021/07/31 04:40:58;;;;;;;2.87;2.60;;;14.70;99.90;;;;;;5091434;28;20514;-77
2021/07/31 04:43:24;;;;;;;3.70;2.80;;;14.70;99.90;;;;;;5092147;28;20504;-77
2021/07/31 04:45:51;;;;;;;4.30;2.70;;;14.60;99.90;;;;;;5091784;28;20489;-77
2021/07/31 04:48:19;;;;;;;4.87;2.73;;;14.60;99.90;;;;;;5092088;28;20466;-77
2021/07/31 04:50:46;;;;;;;3.63;2.70;;;14.60;99.90;;;;;;5091375;28;20465;-77
2021/07/31 04:53:13;;;;;;;3.90;2.60;;;14.60;99.90;;;;;;5091701;28;20945;-76
2021/07/31 04:55:39;;;;;;;3.10;2.80;;;14.70;99.90;;;;;;5091697;28;20482;-77
2021/07/31 04:58:06;;;;;;;6.33;2.30;;;14.70;99.90;;;;;;5090346;28;20465;-76
2021/07/31 05:00:33;;;;;;;4.60;2.93;;;14.70;99.90;;;;;;5091203;28;20464;-76
2021/07/31 05:03:05;;;;;;;6.17;3.20;;;14.70;99.90;;;;;;5091595;28;20461;-76
2021/07/31 05:05:33;;;;;;;4.77;2.50;;;14.70;99.90;;;;;;5092062;28;20524;-75
2021/07/31 05:08:00;;;;;;;3.90;2.50;;;14.70;99.90;;;;;;5092239;28;20476;-75
2021/07/31 05:10:27;;;;;;;3.50;2.67;;;14.80;99.90;;;;;;5105588;22;20953;-68
2021/07/31 05:12:54;;;;;;;3.63;2.77;;;14.80;99.90;;;;;;5070715;28;20481;-68
2021/07/31 05:15:21;;;;;;;3.17;2.87;;;14.80;99.90;;;;;;5071217;28;20505;-65
2021/07/31 05:17:47;;;;;;;4.90;2.60;;;14.90;99.90;;;;;;5071188;28;20486;-66
2021/07/31 05:20:14;;;;;;;2.63;2.30;;;14.90;99.90;;;;;;5069843;28;20481;-66
2021/07/31 05:22:42;;;;;;;3.23;2.10;;;15.00;99.90;;;;;;5070974;28;20465;-66
2021/07/31 05:25:11;;;;;;;3.20;2.80;;;15.00;99.90;;;;;;5070795;28;20493;-66
2021/07/31 05:27:37;;;;;;;4.00;2.57;;;15.00;99.90;;;;;;5070332;28;20467;-66
2021/07/31 05:30:05;;;;;;;7.87;2.60;;;15.10;99.90;;;;;;5070646;28;20485;-67
2021/07/31 05:32:34;;;;;;;2.23;2.00;;;15.10;99.90;;;;;;5070724;28;20469;-66
2021/07/31 05:35:00;;;;;;;3.10;2.70;;;15.20;99.90;;;;;;5071039;28;20475;-67
2021/07/31 05:37:27;;;;;;;2.73;2.30;;;15.20;99.90;;;;;;5070870;28;20466;-67
2021/07/31 05:39:55;;;;;;;3.30;2.67;;;15.30;99.90;;;;;;5065942;28;20466;-67
2021/07/31 05:42:22;;;;;;;2.87;2.50;;;15.30;99.90;;;;;;5070395;28;20503;-67
2021/07/31 05:44:48;;;;;;;4.30;2.47;;;15.30;99.90;;;;;;5070169;28;20489;-66
2021/07/31 05:47:15;;;;;;;3.00;2.70;;;15.40;99.90;;;;;;5070337;28;20462;-67
2021/07/31 05:49:42;;;;;;;5.27;2.70;;;15.40;99.90;;;;;;5069500;28;20469;-67
2021/07/31 05:52:08;;;;;;;3.23;2.80;;;15.50;99.90;;;;;;5070284;28;20461;-67
2021/07/31 05:54:36;;;;;;;3.90;2.60;;;15.50;99.90;;;;;;5069731;28;20485;-67
2021/07/31 05:57:04;;;;;;;4.10;2.60;;;15.50;99.90;;;;;;5070376;28;20490;-67
2021/07/31 05:59:31;;;;;;;3.30;2.70;;;15.60;99.90;;;;;;5069310;28;20462;-66
2021/07/31 06:01:58;;;;;;;6.80;2.90;;;15.60;99.90;;;;;;5069949;28;20827;-67
2021/07/31 06:04:24;;;;;;;3.00;2.60;;;15.70;99.90;;;;;;5069446;28;20894;-67
2021/07/31 06:06:51;;;;;;;3.97;2.90;;;15.70;99.90;;;;;;5069950;28;20462;-66
2021/07/31 06:09:18;;;;;;;3.10;2.80;;;15.70;99.90;;;;;;5069530;28;20855;-67
2021/07/31 06:11:45;;;;;;;4.30;2.70;;;15.80;99.90;;;;;;5069751;28;20892;-67
2021/07/31 06:14:13;;;;;;;6.30;2.93;;;15.90;99.90;;;;;;5069547;28;20462;-67
2021/07/31 06:16:39;;;;;;;3.60;3.10;;;15.90;99.90;;;;;;5069723;28;20487;-67
2021/07/31 06:19:06;;;;;;;3.40;2.63;;;16.00;99.90;;;;;;5069573;28;20454;-67
2021/07/31 06:21:33;;;;;;;3.80;2.67;;;16.00;99.90;;;;;;5069355;28;20465;-67
2021/07/31 06:24:00;;;;;;;3.17;2.50;;;16.10;99.90;;;;;;5069517;28;20499;-67
2021/07/31 06:26:26;;;;;;;4.20;3.00;;;16.10;99.90;;;;;;5069638;28;21107;-67
2021/07/31 06:28:53;;;;;;;7.00;3.10;;;16.10;99.90;;;;;;5069636;28;20953;-67
2021/07/31 06:31:21;;;;;;;3.40;2.80;;;16.20;99.90;;;;;;5069066;28;20962;-68
2021/07/31 06:33:48;;;;;;;5.63;2.70;;;16.20;99.90;;;;;;5069271;28;20463;-67
2021/07/31 06:36:19;;;;;;;5.37;2.80;;;16.30;99.90;;;;;;5069471;28;20483;-67
2021/07/31 06:38:45;;;;;;;3.00;2.70;;;16.30;99.90;;;;;;5069608;28;20493;-67
2021/07/31 06:41:12;;;;;;;3.80;2.50;;;16.40;99.90;;;;;;5069292;28;20462;-67
2021/07/31 06:43:39;;;;;;;2.53;2.30;;;16.50;99.90;;;;;;5069375;28;20826;-68
2021/07/31 06:46:12;;;;;;;3.20;2.40;;;16.50;99.90;;;;;;5069181;28;21032;-67
2021/07/31 06:48:41;;;;;;;5.90;2.70;;;16.60;99.90;;;;;;5069074;28;20471;-68
2021/07/31 06:51:08;;;;;;;3.73;2.57;;;16.60;99.90;;;;;;5068782;28;20471;-68
2021/07/31 06:53:35;;;;;;;2.73;2.50;;;16.60;99.90;;;;;;5068862;28;20473;-68
2021/07/31 06:56:03;;;;;;;4.83;2.80;;;16.60;99.90;;;;;;5069028;28;20482;-68
2021/07/31 06:58:30;;;;;;;3.27;2.57;;;16.70;99.90;;;;;;5068854;28;20463;-67
2021/07/31 07:00:57;;;;;;;2.87;2.23;;;16.80;99.90;;;;;;5068644;28;20473;-67
2021/07/31 07:03:24;;;;;;;5.17;2.67;;;16.80;99.90;;;;;;5068961;28;20462;-68
2021/07/31 07:05:52;;;;;;;6.00;2.27;;;16.90;99.90;;;;;;5068527;28;20486;-67
2021/07/31 07:08:19;;;;;;;5.33;2.70;;;16.90;99.90;;;;;;5069169;28;20470;-68
2021/07/31 07:10:46;;;;;;;4.67;2.77;;;16.90;99.90;;;;;;5068605;28;20963;-68
2021/07/31 07:13:13;;;;;;;3.47;2.53;;;16.90;99.90;;;;;;5069357;28;20875;-68
2021/07/31 07:15:40;;;;;;;8.30;2.63;;;17.00;99.90;;;;;;5068854;28;20478;-69
2021/07/31 07:18:06;;;;;;;4.57;2.60;;;17.10;99.90;;;;;;5069655;28;20481;-68
2021/07/31 07:20:33;;;;;;;5.43;2.80;;;17.20;99.90;;;;;;5068781;28;20459;-68
2021/07/31 07:23:01;;;;;;;2.83;2.30;;;17.30;99.90;;;;;;5072773;28;20462;-68
2021/07/31 07:25:28;;;;;;;3.73;2.47;;;17.30;99.90;;;;;;5072748;28;20874;-68
2021/07/31 07:27:54;;;;;;;3.07;2.40;;;17.40;99.90;;;;;;5073090;28;20462;-68
2021/07/31 07:30:21;;;;;;;2.50;2.13;;;17.40;99.90;;;;;;5072802;28;20465;-68
2021/07/31 07:32:48;;;;;;;4.27;2.50;;;17.50;99.90;;;;;;5072918;28;20466;-68
2021/07/31 07:35:14;;;;;;;2.77;2.50;;;17.50;99.90;;;;;;5072970;28;20470;-68
2021/07/31 07:37:41;;;;;;;7.13;2.70;;;17.50;99.90;;;;;;5072726;28;20462;-68
2021/07/31 07:40:11;;;;;;;5.00;2.63;;;17.50;99.90;;;;;;5072741;28;20469;-68
2021/07/31 07:42:39;;;;;;;3.87;2.50;;;17.60;99.90;;;;;;5072867;28;20458;-68
2021/07/31 07:45:07;;;;;;;2.50;2.30;;;17.70;99.90;;;;;;5072824;28;20560;-68
2021/07/31 07:47:34;;;;;;;4.40;2.80;;;17.70;99.90;;;;;;5072703;28;20462;-68
2021/07/31 07:50:00;;;;;;;4.93;2.43;;;17.80;99.90;;;;;;5072753;28;20466;-68
2021/07/31 07:52:27;;;;;;;3.20;2.27;;;17.80;99.90;;;;;;5072649;28;20454;-68
2021/07/31 07:54:54;;;;;;;3.30;2.70;;;17.80;99.90;;;;;;5072907;28;20475;-68
2021/07/31 07:57:22;;;;;;;2.27;1.90;;;17.90;99.90;;;;;;5072813;28;20950;-68
2021/07/31 07:59:49;;;;;;;2.70;2.10;;;17.90;99.90;;;;;;5072498;28;20458;-68
2021/07/31 08:02:16;;;;;;;4.00;2.00;;;18.00;99.90;;;;;;5072988;28;20463;-68
2021/07/31 08:04:44;;;;;;;3.60;2.37;;;18.10;99.90;;;;;;5072747;28;20883;-68
2021/07/31 08:07:11;;;;;;;5.13;2.20;;;18.10;99.90;;;;;;5073049;28;20488;-68
2021/07/31 08:09:38;;;;;;;5.20;2.17;;;18.10;99.90;;;;;;5072152;28;20930;-68
2021/07/31 08:12:05;;;;;;;3.67;2.03;;;18.20;99.90;;;;;;5072771;28;20466;-68
2021/07/31 08:14:34;;;;;;;3.30;1.77;;;18.30;99.90;;;;;;5072474;28;20465;-68
2021/07/31 08:17:01;;;;;;;5.47;2.10;;;18.30;99.90;;;;;;5072746;28;20477;-69
2021/07/31 08:19:28;;;;;;;3.20;1.93;;;18.40;99.90;;;;;;5071685;28;20488;-68
2021/07/31 08:21:54;;;;;;;2.80;1.97;;;18.40;99.90;;;;;;5072663;28;20472;-68
2021/07/31 08:24:22;;;;;;;3.63;1.80;;;18.40;99.90;;;;;;5071982;28;20458;-68
2021/07/31 08:26:49;;;;;;;4.53;2.10;;;18.50;99.90;;;;;;5072394;28;20512;-68
2021/07/31 08:29:16;;;;;;;2.27;2.00;;;18.50;99.90;;;;;;5072472;28;20949;-68
2021/07/31 08:31:44;;;;;;;4.33;2.63;;;18.50;99.90;;;;;;5072034;28;20464;-68
2021/07/31 08:34:12;;;;;;;2.70;1.90;;;18.60;99.90;;;;;;5072248;28;20462;-68
2021/07/31 08:36:40;;;;;;;3.77;2.40;;;18.60;99.90;;;;;;5072122;28;20583;-67
2021/07/31 08:39:07;;;;;;;3.70;2.40;;;18.80;99.90;;;;;;5072135;28;20969;-68
2021/07/31 08:41:34;;;;;;;2.93;1.80;;;18.80;99.90;;;;;;5071799;28;20470;-67
2021/07/31 08:44:02;;;;;;;1.80;1.60;;;18.80;99.90;;;;;;5072112;28;20883;-67
2021/07/31 08:46:30;;;;;;;2.57;2.03;;;18.90;99.90;;;;;;5071809;28;21436;-67
2021/07/31 08:48:58;;;;;;;3.10;2.20;;;18.90;99.90;;;;;;5072010;28;20458;-68
2021/07/31 08:51:26;;;;;;;3.03;2.03;;;19.00;99.90;;;;;;5071410;28;20473;-66
2021/07/31 08:53:54;;;;;;;2.53;1.80;;;19.10;99.90;;;;;;5071023;28;20469;-67
2021/07/31 08:56:21;;;;;;;2.40;2.07;;;19.20;99.90;;;;;;5071944;28;20978;-67
2021/07/31 08:58:48;;;;;;;3.30;1.87;;;19.40;99.90;;;;;;5066151;28;20458;-66
2021/07/31 09:01:14;;;;;;;2.63;2.33;;;19.40;99.90;;;;;;5051009;28;20466;-66
2021/07/31 09:03:45;;;;;;;2.13;1.93;;;19.30;99.90;;;;;;5051643;28;20471;-66
2021/07/31 09:06:27;;;;;;;4.00;1.50;;;19.40;99.90;;;;;;5059818;28;20564;-68
2021/07/31 09:08:54;;;;;;;3.20;2.20;;;19.50;99.90;;;;;;5031186;28;20463;-67
2021/07/31 09:11:21;;;;;;;3.63;1.83;;;19.60;99.90;;;;;;5030390;28;20476;-67
2021/07/31 09:13:48;;;;;;;2.80;1.80;;;19.60;99.90;;;;;;5030144;28;20471;-68
2021/07/31 09:16:14;;;;;;;1.83;1.70;;;19.70;99.90;;;;;;5030429;28;20484;-67
2021/07/31 09:18:44;;;;;;;7.00;2.30;;;19.80;99.90;;;;;;5030129;28;20476;-68
2021/07/31 09:21:13;;;;;;;4.07;1.67;;;19.80;99.90;;;;;;5029841;28;20612;-67
2021/07/31 09:23:47;;;;;;;4.03;2.30;;;19.90;99.90;;;;;;5030295;28;21024;-67
2021/07/31 09:26:17;;;;;;;5.13;2.33;;;20.00;99.90;;;;;;5030108;28;20496;-68
2021/07/31 09:28:45;;;;;;;5.17;2.03;;;20.10;99.90;;;;;;5029998;28;20452;-67
2021/07/31 09:31:20;;;;;;;3.70;2.30;;;20.10;99.90;;;;;;5029893;28;20461;-67
2021/07/31 09:33:49;;;;;;;2.90;1.90;;;20.30;99.90;;;;;;5029986;28;20456;-68
2021/07/31 09:36:16;;;;;;;3.97;2.27;;;20.40;99.90;;;;;;5030221;28;20491;-68
2021/07/31 09:38:46;;;;;;;4.57;2.40;;;20.50;99.90;;;;;;5029998;28;20467;-67
2021/07/31 09:41:33;;;;;;;5.07;2.10;;;20.60;99.90;;;;;;5029340;28;20970;-67
2021/07/31 09:44:02;;;;;;;3.23;1.90;;;20.70;99.90;;;;;;5029002;28;20461;-67
2021/07/31 09:46:39;;;;;;;1.93;1.83;;;20.70;99.90;;;;;;5029791;28;21030;-67
2021/07/31 09:49:08;;;;;;;2.43;2.00;;;20.70;99.90;;;;;;5029811;28;20887;-67
2021/07/31 09:51:37;;;;;;;2.70;1.60;;;20.80;99.90;;;;;;5029734;28;20456;-67
2021/07/31 09:54:09;;;;;;;2.30;1.80;;;20.70;99.90;;;;;;5029576;28;20460;-68
2021/07/31 09:56:40;;;;;;;2.20;1.70;;;20.70;99.90;;;;;;5029880;28;20480;-66
2021/07/31 09:59:08;;;;;;;4.70;2.03;;;20.70;99.90;;;;;;5029498;28;20967;-66
2021/07/31 10:01:37;;;;;;;3.33;1.90;;;20.80;99.90;;;;;;5029569;28;20510;-67
2021/07/31 10:04:04;;;;;;;3.23;2.00;;;20.90;99.90;;;;;;5029404;28;20471;-67
2021/07/31 10:06:32;;;;;;;2.10;1.70;;;21.00;99.90;;;;;;5029525;28;20579;-67
2021/07/31 10:08:59;;;;;;;2.10;1.53;;;21.10;99.90;;;;;;5029195;28;20468;-67
2021/07/31 10:11:28;;;;;;;2.30;2.10;;;21.20;99.90;;;;;;4993189;28;1040567;-66
2021/07/31 10:13:56;;;;;;;3.83;1.93;;;21.30;99.90;;;;;;5030424;28;20205;-67
2021/07/31 10:16:22;;;;;;;2.93;1.83;;;21.40;99.90;;;;;;5030551;28;20508;-67
2021/07/31 10:18:57;;;;;;;2.30;1.70;;;21.50;99.90;;;;;;5029974;28;20461;-68
2021/07/31 10:21:26;;;;;;;2.97;1.90;;;21.50;99.90;;;;;;5029808;28;20578;-68
2021/07/31 10:23:57;;;;;;;2.53;1.57;;;21.60;99.90;;;;;;5040058;28;20872;-68
2021/07/31 10:26:24;;;;;;;2.97;2.00;;;21.70;99.90;;;;;;5050053;28;20497;-67
2021/07/31 10:28:53;;;;;;;1.90;1.60;;;21.70;99.90;;;;;;5049810;28;20851;-67
2021/07/31 10:31:30;;;;;;;3.47;2.00;;;21.80;99.90;;;;;;5048902;28;20464;-66
2021/07/31 10:33:57;;;;;;;2.90;1.90;;;21.90;99.90;;;;;;5049313;28;20470;-68
2021/07/31 10:36:34;;;;;;;1.70;1.60;;;22.00;99.90;;;;;;5049957;28;20480;-67
2021/07/31 10:39:22;;;;;;;3.10;1.70;;;22.10;99.90;;;;;;5049308;28;20469;-67
2021/07/31 10:41:56;;;;;;;2.80;1.90;;;22.20;99.90;;;;;;5049190;28;20470;-67
2021/07/31 10:44:24;;;;;;;2.10;1.77;;;22.20;99.90;;;;;;5049774;28;20541;-68
2021/07/31 10:47:11;;;;;;;1.90;1.80;;;22.30;99.90;;;;;;5049517;28;20491;-67
2021/07/31 10:49:38;;;;;;;2.17;1.60;;;22.30;99.90;;;;;;5049125;28;20916;-67
2021/07/31 10:52:05;;;;;;;2.00;1.80;;;22.40;99.90;;;;;;5049908;28;20459;-67
2021/07/31 10:55:00;;;;;;;3.00;1.83;;;22.40;99.90;;;;;;5049563;28;20467;-68
2021/07/31 10:58:04;;;;;;;4.87;1.83;;;22.50;99.90;;;;;;5049771;28;20459;-67
2021/07/31 11:00:34;;;;;;;2.93;1.70;;;22.60;99.90;;;;;;5049237;28;20463;-69
2021/07/31 11:03:04;;;;;;;2.80;1.67;;;22.60;99.90;;;;;;5049386;28;20461;-68
2021/07/31 11:06:03;;;;;;;2.83;1.87;;;22.60;99.90;;;;;;5049519;28;20491;-68
2021/07/31 11:08:33;;;;;;;4.13;1.80;;;22.60;99.90;;;;;;5047823;28;20459;-68
2021/07/31 11:11:01;;;;;;;2.47;1.70;;;22.60;99.90;;;;;;5047717;28;20467;-69
2021/07/31 11:13:51;;;;;;;3.10;1.60;;;22.60;99.90;;;;;;5047992;28;20466;-69
2021/07/31 11:16:20;;;;;;;3.37;1.83;;;22.70;99.90;;;;;;5048807;28;20475;-69
2021/07/31 11:18:49;;;;;;;3.63;2.10;;;22.90;99.90;;;;;;5261445;22;20848;-69
2021/07/31 11:21:19;;;;;;;4.03;2.00;;;22.90;99.90;;;;;;5068743;28;20451;-70
2021/07/31 11:23:48;;;;;;;1.70;1.60;;;23.00;99.90;;;;;;5066050;28;20491;-68
2021/07/31 11:26:39;;;;;;;2.90;1.70;;;22.90;99.90;;;;;;5068558;28;20493;-70
2021/07/31 11:29:10;;;;;;;4.47;1.90;;;22.90;99.90;;;;;;5069390;28;20465;-70
2021/07/31 11:31:38;;;;;;;4.87;2.37;;;23.00;99.90;;;;;;5068545;28;20468;-71
2021/07/31 11:34:08;;;;;;;2.73;1.67;;;23.00;99.90;;;;;;5069238;28;20459;-70
2021/07/31 11:36:36;;;;;;;1.90;1.53;;;22.90;99.90;;;;;;5069227;28;20503;-71
2021/07/31 11:39:03;;;;;;;2.80;2.07;;;22.80;99.90;;;;;;5069201;28;20878;-70
2021/07/31 11:41:30;;;;;;;4.27;1.80;;;22.60;99.90;;;;;;5068878;28;20978;-70
2021/07/31 11:43:58;;;;;;;4.30;1.97;;;22.50;99.90;;;;;;5069041;28;20828;-70
2021/07/31 11:46:30;;;;;;;2.73;1.80;;;22.40;99.90;;;;;;5069078;28;20498;-70
2021/07/31 11:48:59;;;;;;;2.37;1.70;;;22.30;99.90;;;;;;5069258;28;20779;-70
2021/07/31 11:51:26;;;;;;;2.50;2.00;;;22.20;99.90;;;;;;5068711;28;20458;-70
2021/07/31 11:53:53;;;;;;;2.70;1.90;;;22.10;99.90;;;;;;5069159;28;20846;-70
2021/07/31 11:56:22;;;;;;;4.27;1.60;;;22.00;99.90;;;;;;5069048;28;20478;-70
2021/07/31 11:58:51;;;;;;;5.50;2.10;;;21.90;99.90;;;;;;5068660;28;20974;-70
2021/07/31 12:01:19;;;;;;;2.03;1.83;;;22.00;99.90;;;;;;5068616;28;20458;-70
2021/07/31 12:03:47;;;;;;;3.00;2.03;;;22.20;99.90;;;;;;5068725;28;20454;-70
2021/07/31 12:06:39;;;;;;;2.50;1.87;;;22.30;99.90;;;;;;5068898;28;20490;-70
2021/07/31 12:09:08;;;;;;;2.40;2.20;;;22.40;99.90;;;;;;5072384;28;20862;-70
2021/07/31 12:11:39;;;;;;;1.90;1.70;;;22.40;99.90;;;;;;5072776;28;20462;-70
2021/07/31 12:14:35;;;;;;;2.50;1.50;;;22.60;99.90;;;;;;5072407;28;20462;-70
2021/07/31 12:17:23;;;;;;;3.90;2.30;;;22.90;99.90;;;;;;5072369;28;20845;-70
2021/07/31 12:19:52;;;;;;;3.40;1.80;;;23.00;99.90;;;;;;5071628;28;20472;-70
2021/07/31 12:22:22;;;;;;;2.27;1.87;;;23.10;99.90;;;;;;5072399;28;20549;-70
2021/07/31 12:25:13;;;;;;;5.33;1.90;;;23.30;99.90;;;;;;5072099;28;20489;-70
2021/07/31 12:27:54;;;;;;;6.00;1.93;;;23.40;99.90;;;;;;5061366;28;20494;-70
2021/07/31 12:30:26;;;;;;;2.03;1.60;;;23.30;99.90;;;;;;5072118;28;20966;-70
2021/07/31 12:32:53;;;;;;;2.40;1.97;;;23.20;99.90;;;;;;5072003;28;20532;-70
2021/07/31 12:35:39;;;;;;;2.97;1.87;;;23.20;99.90;;;;;;5072215;28;20480;-70
2021/07/31 12:38:10;;;;;;;3.37;1.80;;;23.40;99.90;;;;;;5072219;28;20462;-70
2021/07/31 12:40:38;;;;;;;2.10;1.90;;;23.40;99.90;;;;;;5071489;28;20465;-70
2021/07/31 12:43:09;;;;;;;2.57;2.30;;;23.40;99.90;;;;;;5072149;28;20477;-70
2021/07/31 12:45:36;;;;;;;2.70;1.90;;;23.50;99.90;;;;;;5071893;28;20998;-70
2021/07/31 12:48:04;;;;;;;3.23;1.73;;;23.50;99.90;;;;;;5071898;28;20493;-70
2021/07/31 12:50:32;;;;;;;2.50;1.50;;;23.60;99.90;;;;;;5071410;28;20458;-70
2021/07/31 12:53:00;;;;;;;5.37;2.23;;;23.60;99.90;;;;;;5071893;28;20472;-70
2021/07/31 12:55:28;;;;;;;2.70;1.83;;;23.80;99.90;;;;;;5071882;28;20487;-70